Time;durP1;ratioP1;P1;durP2;ratioP2;P2;SDS_P1;SDS_P2;PMS_P1;PMS_P2;Temp;Humidity;BMP_temperature;BMP_pressure;BME280_temperature;BME280_humidity;BME280_pressure;Samples;Min_cycle;Max_cycle;Signal;HPM_P1;HPM_P2
2023/11/25 00:02:18;;;;;;;8.15;3.97;;;;;;;;;;12817595;22;20122;-69
2023/11/25 00:07:15;;;;;;;5.53;3.38;;;;;;;;;;12823421;22;20023;-69
2023/11/25 00:12:11;;;;;;;5.20;3.50;;;;;;;;;;12822373;22;20046;-69
2023/11/25 00:17:07;;;;;;;8.02;3.70;;;;;;;;;;12823045;22;20073;-69
2023/11/25 00:22:05;;;;;;;6.03;3.50;;;;;;;;;;12821466;22;20042;-69
2023/11/25 00:27:02;;;;;;;4.38;3.40;;;;;;;;;;12822267;22;20027;-68
2023/11/25 00:32:00;;;;;;;5.05;3.40;;;;;;;;;;12816157;22;20027;-69
2023/11/25 00:36:56;;;;;;;7.53;3.60;;;;;;;;;;12822095;22;20023;-69
2023/11/25 00:41:53;;;;;;;4.90;3.20;;;;;;;;;;12822905;22;20340;-69
2023/11/25 00:46:49;;;;;;;7.47;3.67;;;;;;;;;;12822209;22;20023;-70
2023/11/25 00:51:46;;;;;;;3.92;3.28;;;;;;;;;;12821517;22;20045;-69
2023/11/25 00:56:42;;;;;;;5.28;3.40;;;;;;;;;;12822254;22;20030;-69
2023/11/25 01:01:39;;;;;;;5.05;4.07;;;;;;;;;;12821641;22;20060;-69
2023/11/25 01:06:35;;;;;;;5.28;3.60;;;;;;;;;;12814645;22;20027;-69
2023/11/25 01:11:31;;;;;;;11.77;3.80;;;;;;;;;;12821178;22;20464;-68
2023/11/25 01:16:28;;;;;;;5.32;3.25;;;;;;;;;;12820364;22;20035;-69
2023/11/25 01:21:24;;;;;;;11.40;3.63;;;;;;;;;;12821102;22;20051;-68
2023/11/25 01:26:22;;;;;;;7.00;3.75;;;;;;;;;;12821154;22;20023;-68
2023/11/25 01:31:18;;;;;;;12.43;4.25;;;;;;;;;;12816111;22;20360;-69
2023/11/25 01:36:15;;;;;;;5.88;3.40;;;;;;;;;;12819413;22;20329;-69
2023/11/25 01:41:11;;;;;;;9.05;3.25;;;;;;;;;;12820672;22;20051;-69
2023/11/25 01:46:07;;;;;;;5.90;3.47;;;;;;;;;;12821623;22;20418;-70
2023/11/25 01:51:05;;;;;;;6.95;3.45;;;;;;;;;;12820872;22;20054;-70
2023/11/25 01:56:02;;;;;;;6.57;3.38;;;;;;;;;;12794085;22;20102;-70
2023/11/25 02:00:58;;;;;;;6.22;3.20;;;;;;;;;;12820602;22;20023;-70
2023/11/25 02:05:55;;;;;;;5.68;3.53;;;;;;;;;;12810293;22;20027;-68
2023/11/25 02:10:52;;;;;;;8.05;3.33;;;;;;;;;;12820992;22;20030;-68
2023/11/25 02:15:49;;;;;;;7.63;3.42;;;;;;;;;;12825050;22;20027;-68
2023/11/25 02:20:45;;;;;;;13.93;3.60;;;;;;;;;;12824145;22;20511;-69
2023/11/25 02:25:45;;;;;;;4.18;3.60;;;;;;;;;;12821141;22;20031;-69
2023/11/25 02:30:46;;;;;;;7.00;4.07;;;;;;;;;;12816568;22;20015;-69
2023/11/25 02:35:43;;;;;;;6.68;3.85;;;;;;;;;;12822642;22;20011;-70
2023/11/25 02:40:45;;;;;;;8.15;3.97;;;;;;;;;;12824080;22;20480;-67
2023/11/25 02:45:42;;;;;;;5.63;3.65;;;;;;;;;;12825031;22;20019;-67
2023/11/25 02:50:38;;;;;;;6.35;3.50;;;;;;;;;;12824886;22;20015;-68
2023/11/25 02:55:35;;;;;;;4.35;2.90;;;;;;;;;;12825319;22;20019;-69
2023/11/25 03:00:36;;;;;;;4.15;3.33;;;;;;;;;;12824790;22;20023;-68
2023/11/25 03:05:33;;;;;;;3.80;3.22;;;;;;;;;;12825098;22;20050;-68
2023/11/25 03:10:30;;;;;;;4.22;3.40;;;;;;;;;;12818819;22;20030;-69
2023/11/25 03:15:27;;;;;;;4.85;3.28;;;;;;;;;;12824366;22;20026;-68
2023/11/25 03:20:23;;;;;;;9.88;3.47;;;;;;;;;;12824095;22;20030;-68
2023/11/25 03:25:22;;;;;;;7.55;3.65;;;;;;;;;;12823872;22;20023;-68
2023/11/25 03:30:19;;;;;;;4.95;3.72;;;;;;;;;;12823685;22;20023;-69
2023/11/25 03:35:16;;;;;;;8.60;3.40;;;;;;;;;;12817781;22;20049;-68
2023/11/25 03:40:15;;;;;;;7.40;3.75;;;;;;;;;;12824472;22;20094;-69
2023/11/25 03:45:15;;;;;;;7.70;3.40;;;;;;;;;;12824541;22;20057;-69
2023/11/25 03:50:12;;;;;;;6.97;3.80;;;;;;;;;;12824651;22;20035;-68
2023/11/25 03:55:09;;;;;;;8.68;3.35;;;;;;;;;;12821672;22;20019;-68
2023/11/25 04:00:15;;;;;;;10.43;3.25;;;;;;;;;;12823127;22;20025;-68
2023/11/25 04:05:13;;;;;;;6.88;2.95;;;;;;;;;;12822136;22;20016;-68
2023/11/25 04:10:13;;;;;;;7.55;3.45;;;;;;;;;;12821219;22;20019;-68
2023/11/25 04:15:10;;;;;;;10.30;3.72;;;;;;;;;;12814919;22;20094;-67
2023/11/25 04:20:13;;;;;;;6.25;3.47;;;;;;;;;;12819865;22;20039;-67
2023/11/25 04:25:14;;;;;;;13.73;4.85;;;;;;;;;;12820198;22;20019;-68
2023/11/25 04:30:11;;;;;;;7.93;4.10;;;;;;;;;;12822611;22;20445;-68
2023/11/25 04:35:08;;;;;;;6.57;4.65;;;;;;;;;;12814784;22;20514;-68
2023/11/25 04:40:07;;;;;;;5.78;4.65;;;;;;;;;;12821873;22;20022;-68
2023/11/25 04:45:04;;;;;;;7.43;4.95;;;;;;;;;;12820873;22;20322;-68
2023/11/25 04:50:00;;;;;;;6.07;4.47;;;;;;;;;;12822303;22;20089;-68
2023/11/25 04:54:57;;;;;;;10.05;4.78;;;;;;;;;;12821632;22;20075;-68
2023/11/25 04:59:53;;;;;;;11.27;5.30;;;;;;;;;;12819693;22;20353;-69
2023/11/25 05:04:49;;;;;;;13.63;6.00;;;;;;;;;;12820296;22;20023;-67
2023/11/25 05:09:46;;;;;;;8.80;5.70;;;;;;;;;;12820831;22;20072;-68
2023/11/25 05:14:42;;;;;;;7.35;5.65;;;;;;;;;;12815756;22;20395;-68
2023/11/25 05:19:39;;;;;;;10.77;5.60;;;;;;;;;;12821111;22;20076;-68
2023/11/25 05:24:35;;;;;;;7.13;6.00;;;;;;;;;;12820948;22;20027;-68
2023/11/25 05:29:31;;;;;;;7.32;5.07;;;;;;;;;;12820813;22;20195;-67
2023/11/25 05:34:28;;;;;;;8.45;5.55;;;;;;;;;;12815405;22;20027;-68
2023/11/25 05:39:24;;;;;;;10.10;5.43;;;;;;;;;;12820727;22;20077;-66
2023/11/25 05:44:21;;;;;;;10.15;6.22;;;;;;;;;;12821037;22;20460;-66
2023/11/25 05:49:17;;;;;;;12.85;5.47;;;;;;;;;;12819508;22;20346;-67
2023/11/25 05:54:13;;;;;;;9.48;5.63;;;;;;;;;;12793649;22;20038;-67
2023/11/25 05:59:10;;;;;;;9.82;5.82;;;;;;;;;;12820677;22;20054;-67
2023/11/25 06:04:06;;;;;;;6.60;6.00;;;;;;;;;;12820536;22;20068;-68
2023/11/25 06:09:05;;;;;;;8.57;5.65;;;;;;;;;;12820613;22;20037;-68
2023/11/25 06:14:01;;;;;;;6.60;6.00;;;;;;;;;;12820742;22;20522;-68
2023/11/25 06:18:57;;;;;;;10.20;6.47;;;;;;;;;;12788446;22;20058;-68
2023/11/25 06:23:54;;;;;;;11.35;6.80;;;;;;;;;;12819510;22;20027;-69
2023/11/25 06:28:50;;;;;;;8.70;6.68;;;;;;;;;;12820386;22;20411;-68
2023/11/25 06:33:47;;;;;;;7.03;6.32;;;;;;;;;;12814574;22;20075;-68
2023/11/25 06:38:43;;;;;;;8.77;7.00;;;;;;;;;;12820812;22;20392;-67
2023/11/25 06:43:43;;;;;;;15.45;6.72;;;;;;;;;;12820124;22;20023;-67
2023/11/25 06:48:40;;;;;;;11.07;7.28;;;;;;;;;;12821046;22;20103;-67
2023/11/25 06:53:36;;;;;;;9.95;6.95;;;;;;;;;;12819083;22;20023;-67
2023/11/25 06:58:32;;;;;;;13.10;7.32;;;;;;;;;;12819780;22;20408;-67
2023/11/25 07:03:29;;;;;;;9.02;7.13;;;;;;;;;;12822726;22;20027;-68
2023/11/25 07:08:25;;;;;;;19.65;7.70;;;;;;;;;;12821585;22;20023;-68
2023/11/25 07:13:23;;;;;;;8.95;7.55;;;;;;;;;;12821084;22;20630;-68
2023/11/25 07:18:19;;;;;;;8.15;6.88;;;;;;;;;;12815994;22;20504;-68
2023/11/25 07:23:18;;;;;;;10.80;7.47;;;;;;;;;;12820237;22;20025;-68
2023/11/25 07:28:15;;;;;;;12.48;7.90;;;;;;;;;;12821662;22;20334;-68
2023/11/25 07:33:12;;;;;;;15.77;7.60;;;;;;;;;;12820156;22;20274;-67
2023/11/25 07:38:09;;;;;;;11.98;7.07;;;;;;;;;;12814277;22;20038;-68
2023/11/25 07:43:05;;;;;;;7.63;6.93;;;;;;;;;;12819105;22;20395;-68
2023/11/25 07:48:03;;;;;;;11.75;7.40;;;;;;;;;;12820855;22;20102;-67
2023/11/25 07:52:59;;;;;;;10.05;7.60;;;;;;;;;;12820625;22;20051;-67
2023/11/25 07:57:58;;;;;;;9.02;7.45;;;;;;;;;;12819296;22;20538;-66
2023/11/25 08:02:55;;;;;;;8.00;7.20;;;;;;;;;;12817051;22;20075;-69
2023/11/25 08:07:53;;;;;;;8.77;7.18;;;;;;;;;;12790026;22;20261;-71
2023/11/25 08:12:49;;;;;;;11.15;7.22;;;;;;;;;;12817619;22;20027;-69
2023/11/25 08:17:46;;;;;;;8.43;7.22;;;;;;;;;;12819099;22;20689;-72
2023/11/25 08:22:43;;;;;;;10.52;7.35;;;;;;;;;;12817756;22;20023;-69
2023/11/25 08:27:41;;;;;;;8.00;7.38;;;;;;;;;;12822633;22;20027;-72
2023/11/25 08:32:38;;;;;;;10.38;7.80;;;;;;;;;;12821164;22;20035;-71
2023/11/25 08:37:38;;;;;;;8.82;7.00;;;;;;;;;;12816340;22;20043;-71
2023/11/25 08:42:35;;;;;;;7.60;6.95;;;;;;;;;;12820999;22;20479;-71
2023/11/25 08:47:34;;;;;;;7.22;6.38;;;;;;;;;;12821644;22;20023;-71
2023/11/25 08:52:34;;;;;;;6.80;6.20;;;;;;;;;;12819852;22;20023;-71
2023/11/25 08:57:32;;;;;;;12.75;6.10;;;;;;;;;;12815680;22;20636;-71
2023/11/25 09:02:28;;;;;;;8.05;6.88;;;;;;;;;;12820137;22;20022;-71
2023/11/25 09:07:25;;;;;;;8.88;6.35;;;;;;;;;;12819115;22;20495;-71
2023/11/25 09:12:21;;;;;;;10.15;6.75;;;;;;;;;;12816732;22;20035;-71
2023/11/25 09:17:19;;;;;;;13.10;7.20;;;;;;;;;;12820084;22;20019;-70
2023/11/25 09:22:15;;;;;;;11.70;7.38;;;;;;;;;;12816412;22;20026;-72
2023/11/25 09:27:13;;;;;;;9.50;7.45;;;;;;;;;;12789341;22;20030;-72
2023/11/25 09:32:10;;;;;;;9.95;7.45;;;;;;;;;;12818403;22;20023;-72
2023/11/25 09:37:07;;;;;;;7.97;7.28;;;;;;;;;;12813381;22;20094;-72
2023/11/25 09:42:04;;;;;;;8.02;6.65;;;;;;;;;;12818289;22;20023;-72
2023/11/25 09:47:00;;;;;;;8.80;7.45;;;;;;;;;;12819428;22;20030;-70
2023/11/25 09:52:00;;;;;;;8.55;7.57;;;;;;;;;;12821062;22;20444;-71
2023/11/25 09:56:58;;;;;;;9.38;7.50;;;;;;;;;;12821016;22;20487;-71
2023/11/25 10:01:54;;;;;;;9.02;7.95;;;;;;;;;;12820399;22;20023;-70
2023/11/25 10:06:51;;;;;;;7.50;6.80;;;;;;;;;;12816208;22;20073;-71
2023/11/25 10:11:47;;;;;;;11.80;6.95;;;;;;;;;;12816565;22;20019;-71
2023/11/25 10:16:45;;;;;;;7.95;7.20;;;;;;;;;;12818363;22;20023;-71
2023/11/25 10:21:43;;;;;;;8.00;7.00;;;;;;;;;;12819935;22;20027;-70
2023/11/25 10:26:40;;;;;;;7.55;6.45;;;;;;;;;;12820756;22;20026;-71
2023/11/25 10:31:39;;;;;;;8.73;7.43;;;;;;;;;;12819976;22;20020;-71
2023/11/25 10:36:36;;;;;;;9.45;6.97;;;;;;;;;;12817737;22;20497;-71
2023/11/25 10:41:33;;;;;;;8.32;7.28;;;;;;;;;;12824929;22;20023;-71
2023/11/25 10:46:36;;;;;;;8.27;7.30;;;;;;;;;;12824660;22;20034;-71
2023/11/25 10:51:33;;;;;;;8.18;6.75;;;;;;;;;;12824861;22;20084;-71
2023/11/25 10:56:31;;;;;;;7.50;6.80;;;;;;;;;;12823684;22;20364;-71
2023/11/25 11:01:30;;;;;;;7.90;7.10;;;;;;;;;;12824299;22;20058;-71
2023/11/25 11:06:28;;;;;;;7.85;7.03;;;;;;;;;;12823387;22;20023;-71
2023/11/25 11:11:35;;;;;;;8.25;7.03;;;;;;;;;;12823875;22;20094;-71
2023/11/25 11:16:37;;;;;;;9.27;6.90;;;;;;;;;;12823990;22;20070;-71
2023/11/25 11:21:37;;;;;;;9.63;6.88;;;;;;;;;;12823335;22;20027;-71
2023/11/25 11:26:46;;;;;;;10.70;5.88;;;;;;;;;;12823788;22;20042;-71
2023/11/25 11:31:57;;;;;;;9.55;5.30;;;;;;;;;;12795796;22;20103;-71
2023/11/25 11:36:54;;;;;;;10.18;6.50;;;;;;;;;;12824080;22;20035;-71
2023/11/25 11:41:52;;;;;;;5.80;4.90;;;;;;;;;;12816124;22;20026;-71
2023/11/25 11:46:50;;;;;;;6.50;4.68;;;;;;;;;;12822491;22;20039;-71
2023/11/25 11:52:00;;;;;;;9.75;5.13;;;;;;;;;;12823322;22;20062;-71
2023/11/25 11:57:00;;;;;;;6.95;5.30;;;;;;;;;;12821985;22;20023;-70
2023/11/25 12:01:56;;;;;;;9.57;5.20;;;;;;;;;;12819415;22;20050;-71
2023/11/25 12:06:55;;;;;;;10.00;5.30;;;;;;;;;;12795919;22;20088;-71
2023/11/25 12:12:00;;;;;;;6.55;5.05;;;;;;;;;;12823457;22;20074;-71
2023/11/25 12:16:56;;;;;;;9.13;5.40;;;;;;;;;;12822948;22;20023;-71
2023/11/25 12:21:52;;;;;;;8.23;4.57;;;;;;;;;;12822392;22;20031;-72
2023/11/25 12:26:52;;;;;;;10.55;6.07;;;;;;;;;;12823346;22;20023;-71
2023/11/25 12:31:49;;;;;;;6.50;4.90;;;;;;;;;;12821348;22;20034;-71
2023/11/25 12:36:45;;;;;;;9.38;5.55;;;;;;;;;;12822787;22;20066;-71
2023/11/25 12:41:43;;;;;;;9.25;5.03;;;;;;;;;;12815462;22;20664;-71
2023/11/25 12:46:40;;;;;;;6.63;4.82;;;;;;;;;;12823145;22;20027;-72
2023/11/25 12:51:43;;;;;;;7.82;4.65;;;;;;;;;;12823360;22;20851;-72
2023/11/25 12:56:42;;;;;;;9.00;5.20;;;;;;;;;;12821658;22;20031;-72
2023/11/25 13:01:40;;;;;;;16.85;5.00;;;;;;;;;;12822644;22;20022;-72
2023/11/25 13:06:47;;;;;;;6.53;4.32;;;;;;;;;;12822531;22;20390;-72
2023/11/25 13:11:43;;;;;;;5.53;4.95;;;;;;;;;;12822157;22;20030;-72
2023/11/25 13:16:40;;;;;;;7.47;4.10;;;;;;;;;;12818738;22;20113;-72
2023/11/25 13:21:40;;;;;;;4.38;3.85;;;;;;;;;;12821674;22;20023;-71
2023/11/25 13:26:37;;;;;;;8.75;4.40;;;;;;;;;;12821613;22;20027;-72
2023/11/25 13:31:34;;;;;;;7.20;4.93;;;;;;;;;;12822546;22;20097;-72
2023/11/25 13:36:31;;;;;;;6.25;4.45;;;;;;;;;;12821518;22;20023;-72
2023/11/25 13:41:27;;;;;;;9.68;4.47;;;;;;;;;;12810622;22;20024;-72
2023/11/25 13:46:23;;;;;;;7.00;4.68;;;;;;;;;;12819957;22;20444;-72
2023/11/25 13:51:21;;;;;;;4.78;4.38;;;;;;;;;;12820633;22;20031;-72
2023/11/25 13:56:19;;;;;;;6.65;4.63;;;;;;;;;;12820097;22;20034;-72
2023/11/25 14:01:16;;;;;;;8.40;4.80;;;;;;;;;;12818593;22;20035;-72
2023/11/25 14:06:12;;;;;;;5.57;4.15;;;;;;;;;;12819893;22;20019;-71
2023/11/25 14:11:09;;;;;;;8.27;4.30;;;;;;;;;;12819884;22;20031;-72
2023/11/25 14:16:05;;;;;;;9.10;4.30;;;;;;;;;;12817744;22;20027;-72
2023/11/25 14:21:02;;;;;;;6.45;4.47;;;;;;;;;;12821225;22;20081;-72
2023/11/25 14:25:59;;;;;;;14.18;4.70;;;;;;;;;;12818838;22;20023;-72
2023/11/25 14:30:56;;;;;;;8.13;4.65;;;;;;;;;;12819038;22;20023;-72
2023/11/25 14:35:52;;;;;;;5.90;4.30;;;;;;;;;;12818186;22;20045;-72
2023/11/25 14:40:48;;;;;;;4.85;4.40;;;;;;;;;;12786366;22;20138;-72
2023/11/25 14:45:45;;;;;;;6.40;4.57;;;;;;;;;;12819100;22;20023;-71
2023/11/25 14:50:41;;;;;;;4.95;3.63;;;;;;;;;;12818913;22;20098;-72
2023/11/25 14:55:38;;;;;;;8.50;3.70;;;;;;;;;;12819066;22;20080;-72
2023/11/25 15:00:34;;;;;;;4.28;3.88;;;;;;;;;;12818618;22;20033;-72
2023/11/25 15:05:30;;;;;;;4.68;3.63;;;;;;;;;;12819871;22;20357;-72
2023/11/25 15:10:27;;;;;;;3.85;3.55;;;;;;;;;;12820047;22;20023;-72
2023/11/25 15:15:24;;;;;;;3.88;3.58;;;;;;;;;;12819395;22;20031;-72
2023/11/25 15:20:22;;;;;;;4.50;4.10;;;;;;;;;;12818812;22;20061;-72
2023/11/25 15:25:18;;;;;;;4.80;4.30;;;;;;;;;;12821368;22;20023;-72
2023/11/25 15:30:16;;;;;;;4.95;4.55;;;;;;;;;;12821957;22;20030;-72
2023/11/25 15:35:12;;;;;;;5.32;4.55;;;;;;;;;;12823193;22;20053;-72
2023/11/25 15:40:12;;;;;;;7.35;5.10;;;;;;;;;;12822847;22;20065;-72
2023/11/25 15:45:09;;;;;;;7.45;5.65;;;;;;;;;;12781195;22;20086;-72
2023/11/25 15:50:05;;;;;;;5.22;4.70;;;;;;;;;;12816847;22;20364;-73
2023/11/25 15:55:02;;;;;;;6.78;4.70;;;;;;;;;;12819651;22;20520;-72
2023/11/25 15:59:58;;;;;;;5.20;4.80;;;;;;;;;;12818652;22;20029;-72
2023/11/25 16:04:55;;;;;;;5.93;4.80;;;;;;;;;;12818201;22;20027;-73
2023/11/25 16:09:52;;;;;;;5.03;4.63;;;;;;;;;;12817935;22;20023;-73
2023/11/25 16:14:48;;;;;;;4.78;4.30;;;;;;;;;;12817051;22;20058;-73
2023/11/25 16:19:50;;;;;;;;;;;;;;;;;;12794131;22;20085;-73
2023/11/25 16:24:47;;;;;;;4.68;4.22;;;;;;;;;;12817380;22;19994;-72
2023/11/25 16:29:43;;;;;;;5.28;4.78;;;;;;;;;;12821066;22;20077;-72
2023/11/25 16:34:40;;;;;;;5.88;5.28;;;;;;;;;;12822388;22;20030;-71
2023/11/25 16:39:36;;;;;;;6.32;5.40;;;;;;;;;;12816617;22;20488;-73
2023/11/25 16:44:33;;;;;;;5.88;5.28;;;;;;;;;;12811812;22;20031;-73
2023/11/25 16:49:29;;;;;;;6.50;5.90;;;;;;;;;;12791871;22;20412;-73
2023/11/25 16:54:38;;;;;;;8.02;5.50;;;;;;;;;;12816105;22;20058;-73
2023/11/25 16:59:38;;;;;;;6.57;6.07;;;;;;;;;;12794353;22;20057;-73
2023/11/25 17:04:34;;;;;;;6.72;6.10;;;;;;;;;;12822112;22;20082;-72
2023/11/25 17:09:33;;;;;;;6.45;5.88;;;;;;;;;;12821941;22;20033;-71
2023/11/25 17:14:32;;;;;;;7.80;7.03;;;;;;;;;;12795393;22;20518;-72
2023/11/25 17:19:30;;;;;;;10.77;7.03;;;;;;;;;;12792130;22;20019;-72
2023/11/25 17:24:27;;;;;;;9.13;6.75;;;;;;;;;;12786887;22;20025;-73
2023/11/25 17:29:29;;;;;;;15.70;8.88;;;;;;;;;;12788244;22;20019;-71
2023/11/25 17:34:25;;;;;;;6.53;5.90;;;;;;;;;;12813715;22;20030;-72
2023/11/25 17:39:21;;;;;;;8.75;6.90;;;;;;;;;;12816577;22;20019;-72
2023/11/25 17:44:18;;;;;;;7.47;6.68;;;;;;;;;;12810184;22;20099;-72
2023/11/25 17:49:14;;;;;;;10.30;7.13;;;;;;;;;;12791059;22;20334;-73
2023/11/25 17:54:11;;;;;;;7.63;6.88;;;;;;;;;;12820991;22;20026;-72
2023/11/25 17:59:07;;;;;;;12.65;8.65;;;;;;;;;;12820856;22;20121;-72
2023/11/25 18:04:04;;;;;;;9.70;8.38;;;;;;;;;;12820700;22;20077;-72
2023/11/25 18:09:00;;;;;;;8.15;7.30;;;;;;;;;;12820395;22;20027;-72
2023/11/25 18:13:57;;;;;;;8.35;7.13;;;;;;;;;;12820363;22;20073;-72
2023/11/25 18:18:53;;;;;;;13.65;8.48;;;;;;;;;;12820665;22;20019;-72
2023/11/25 18:23:51;;;;;;;9.18;8.02;;;;;;;;;;12793011;22;20076;-72
2023/11/25 18:28:47;;;;;;;10.50;7.95;;;;;;;;;;12820788;22;20030;-72
2023/11/25 18:33:44;;;;;;;9.35;8.35;;;;;;;;;;12820007;22;20034;-72
2023/11/25 18:38:40;;;;;;;9.23;8.27;;;;;;;;;;12820333;22;20084;-72
2023/11/25 18:43:36;;;;;;;8.68;7.82;;;;;;;;;;12813479;22;20023;-72
2023/11/25 18:48:33;;;;;;;10.30;8.07;;;;;;;;;;12819444;22;20023;-72
2023/11/25 18:53:30;;;;;;;14.15;8.68;;;;;;;;;;12820177;22;20023;-72
2023/11/25 18:58:27;;;;;;;17.15;10.65;;;;;;;;;;12824862;22;20034;-72
2023/11/25 19:03:25;;;;;;;15.00;9.05;;;;;;;;;;12824189;22;20023;-72
2023/11/25 19:08:21;;;;;;;15.10;9.93;;;;;;;;;;12823482;22;20033;-72
2023/11/25 19:13:18;;;;;;;15.48;9.77;;;;;;;;;;12823848;22;20025;-72
2023/11/25 19:18:14;;;;;;;18.98;9.40;;;;;;;;;;12823902;22;20027;-73
2023/11/25 19:23:10;;;;;;;12.00;8.23;;;;;;;;;;12823454;22;20015;-72
2023/11/25 19:28:07;;;;;;;10.05;6.90;;;;;;;;;;12824725;22;20019;-72
2023/11/25 19:33:04;;;;;;;7.22;6.60;;;;;;;;;;12795972;22;20022;-72
2023/11/25 19:38:01;;;;;;;7.80;6.95;;;;;;;;;;12823203;22;20480;-73
2023/11/25 19:42:57;;;;;;;8.32;6.47;;;;;;;;;;12817646;22;20047;-72
2023/11/25 19:47:54;;;;;;;9.93;7.55;;;;;;;;;;12823239;22;20396;-72
2023/11/25 19:52:50;;;;;;;9.93;7.40;;;;;;;;;;12823612;22;20105;-72
2023/11/25 19:57:48;;;;;;;8.50;6.85;;;;;;;;;;12824275;22;20031;-72
2023/11/25 20:02:44;;;;;;;9.73;6.93;;;;;;;;;;12823617;22;20039;-72
2023/11/25 20:07:42;;;;;;;9.88;7.38;;;;;;;;;;12823682;22;20069;-72
2023/11/25 20:12:39;;;;;;;9.93;7.50;;;;;;;;;;12821876;22;20022;-72
2023/11/25 20:17:35;;;;;;;7.00;6.38;;;;;;;;;;12796397;22;20023;-72
2023/11/25 20:22:31;;;;;;;8.48;6.72;;;;;;;;;;12823148;22;20671;-72
2023/11/25 20:27:28;;;;;;;7.10;6.40;;;;;;;;;;12823279;22;20019;-72
2023/11/25 20:32:25;;;;;;;8.68;6.10;;;;;;;;;;12822114;22;20530;-72
2023/11/25 20:37:21;;;;;;;9.02;6.22;;;;;;;;;;12822715;22;20029;-72
2023/11/25 20:42:18;;;;;;;7.75;5.68;;;;;;;;;;12821873;22;20057;-72
2023/11/25 20:47:14;;;;;;;6.65;6.05;;;;;;;;;;12790175;22;20024;-72
2023/11/25 20:52:11;;;;;;;10.15;6.93;;;;;;;;;;12822076;22;20469;-72
2023/11/25 20:57:09;;;;;;;6.63;6.03;;;;;;;;;;12822605;22;20019;-72
2023/11/25 21:02:05;;;;;;;6.60;6.05;;;;;;;;;;12822352;22;20027;-72
2023/11/25 21:07:02;;;;;;;6.85;6.05;;;;;;;;;;12821658;22;20054;-73
2023/11/25 21:11:59;;;;;;;7.90;6.25;;;;;;;;;;12820131;22;20027;-72
2023/11/25 21:16:56;;;;;;;11.18;6.55;;;;;;;;;;12794269;22;20037;-72
2023/11/25 21:21:52;;;;;;;7.78;7.00;;;;;;;;;;12820976;22;20035;-72
2023/11/25 21:26:48;;;;;;;14.48;7.22;;;;;;;;;;12822600;22;20023;-72
2023/11/25 21:31:46;;;;;;;10.00;7.13;;;;;;;;;;12821270;22;20667;-72
2023/11/25 21:36:47;;;;;;;10.88;6.70;;;;;;;;;;12821294;22;20520;-72
2023/11/25 21:41:43;;;;;;;11.63;6.75;;;;;;;;;;12821294;22;20356;-72
2023/11/25 21:46:39;;;;;;;9.88;6.47;;;;;;;;;;12816203;22;20027;-72
2023/11/25 21:51:36;;;;;;;8.85;6.55;;;;;;;;;;12821426;22;20544;-72
2023/11/25 21:56:32;;;;;;;12.80;6.78;;;;;;;;;;12821849;22;20057;-72
2023/11/25 22:01:28;;;;;;;8.88;6.78;;;;;;;;;;12820937;22;20024;-72
2023/11/25 22:06:27;;;;;;;7.65;6.20;;;;;;;;;;12821421;22;20368;-71
2023/11/25 22:11:23;;;;;;;8.38;6.78;;;;;;;;;;12820180;22;20035;-72
2023/11/25 22:16:20;;;;;;;11.18;6.53;;;;;;;;;;12819482;22;20368;-72
2023/11/25 22:21:20;;;;;;;10.05;6.15;;;;;;;;;;12820987;22;20082;-71
2023/11/25 22:26:26;;;;;;;9.40;6.00;;;;;;;;;;12794110;22;20031;-71
2023/11/25 22:31:22;;;;;;;6.72;6.05;;;;;;;;;;12812351;22;20539;-72
2023/11/25 22:36:23;;;;;;;11.02;6.63;;;;;;;;;;12797400;22;20461;-71
2023/11/25 22:41:20;;;;;;;15.13;6.28;;;;;;;;;;12818254;22;20024;-67
2023/11/25 22:46:20;;;;;;;10.93;6.38;;;;;;;;;;12816777;22;20023;-67
2023/11/25 22:51:21;;;;;;;11.45;5.95;;;;;;;;;;12822403;22;20368;-68
2023/11/25 22:56:18;;;;;;;20.80;9.23;;;;;;;;;;12822477;22;20461;-68
2023/11/25 23:01:18;;;;;;;12.20;7.68;;;;;;;;;;12822852;22;20034;-68
2023/11/25 23:06:14;;;;;;;10.85;5.72;;;;;;;;;;12824376;22;20023;-68
2023/11/25 23:11:11;;;;;;;11.43;5.82;;;;;;;;;;12822822;22;20085;-68
2023/11/25 23:16:09;;;;;;;13.25;6.65;;;;;;;;;;12824716;22;20035;-68
2023/11/25 23:21:05;;;;;;;8.57;6.03;;;;;;;;;;12823663;22;20102;-69
2023/11/25 23:26:03;;;;;;;7.28;5.97;;;;;;;;;;12823834;22;20460;-68
2023/11/25 23:31:01;;;;;;;7.10;5.50;;;;;;;;;;12823878;22;20518;-68
2023/11/25 23:35:57;;;;;;;7.65;5.05;;;;;;;;;;12818119;22;20023;-68
2023/11/25 23:40:53;;;;;;;6.30;4.55;;;;;;;;;;12823681;22;20326;-68
2023/11/25 23:45:50;;;;;;;6.70;4.82;;;;;;;;;;12824285;22;20357;-67
2023/11/25 23:50:47;;;;;;;9.25;4.72;;;;;;;;;;12818894;22;20172;-68
2023/11/25 23:55:43;;;;;;;6.57;4.50;;;;;;;;;;12823737;22;20478;-68
